Have a Safe July 4th! 

Flight Track Log - Related Links

Times and Time Zones

All times are in EDT time to prevent confusion due to time zone crossing. See the RPA4901 flight status page for this flight to view local times or setup timezone preferences in your user account.

Time Position Orientation Groundspeed Altitude Reporting Facility
EDT Latitude Longitude Course Direction KTS MPH feet Rate Location/Type
Sun 08:59:43 PM 39.8333 -104.7500 252° West 187 215 6,400  Level Denver TRACON
Sun 09:00:37 PM 39.8167 -104.8167 252° West 215 247 7,800 1,692 Climbing Denver TRACON
Sun 09:01:01 PM 39.8097 -104.8464 253° West 221 254 8,600 1,605 Climbing Denver Center
Sun 09:02:03 PM 39.7447 -104.8708 196° South 254 292 10,100 1,902 Climbing Denver Center
Sun 09:03:04 PM 39.6764 -104.8894 192° South 255 293 12,500 2,089 Climbing Denver Center
Sun 09:04:18 PM 39.6022 -104.9164 196° South 228 262 14,800 1,809 Climbing Denver Center
Sun 09:05:20 PM 39.5350 -104.9356 192° South 229 264 16,600 1,500 Climbing Denver Center
Sun 09:06:22 PM 39.4714 -104.9564 194° South 237 273 17,900 1,306 Climbing Denver Center
Sun 09:07:24 PM 39.4022 -104.9783 194° South 236 272 19,300 1,268 Climbing Denver Center
Sun 09:08:25 PM 39.3367 -104.9983 193° South 240 276 20,500 1,073 Climbing Denver Center
Sun 09:09:27 PM 39.2706 -105.0192 194° South 244 281 21,500 1,016 Climbing Denver Center
Sun 09:10:29 PM 39.1981 -105.0442 195° South 250 288 22,600 976 Climbing Denver Center
Sun 09:11:30 PM 39.1297 -105.0656 194° South 246 283 23,500 683 Climbing Denver Center
Sun 09:12:32 PM 39.0675 -105.1044 206° Southwest 244 281 24,000 532 Climbing Denver Center
Sun 09:13:34 PM 38.9964 -105.1472 205° Southwest 276 318 24,600 488 Climbing Denver Center
Sun 09:14:35 PM 38.9244 -105.1894 205° Southwest 278 320 25,000 195 Climbing Denver Center
Sun 09:15:37 PM 38.8528 -105.2322 205° Southwest 292 336 25,000  Level Denver Center
Sun 09:16:39 PM 38.7619 -105.2844 204° Southwest 316 364 25,000  Level Denver Center
Sun 09:17:40 PM 38.6817 -105.3314 205° Southwest 330 380 25,000  Level Denver Center
Sun 09:18:42 PM 38.6014 -105.3783 205° Southwest 331 381 25,000  Level Denver Center
Sun 09:19:44 PM 38.5011 -105.4233 199° South 341 392 25,000  Level Denver Center
Sun 09:20:46 PM 38.3961 -105.4569 194° South 348 400 25,000  Level Denver Center
Sun 09:21:48 PM 38.3064 -105.4875 195° South 348 400 25,000  Level Denver Center
Sun 09:22:49 PM 38.2308 -105.5161 197° South 353 406 25,000  Level Denver Center
Sun 09:23:51 PM 38.1089 -105.5558 194° South 354 407 25,000  Level Denver Center
Sun 09:24:53 PM 38.0025 -105.5933 196° South 355 409 25,000  Level Denver Center
Sun 09:25:55 PM 37.9106 -105.6242 195° South 357 411 25,000  Level Denver Center
Sun 09:27:08 PM 37.8194 -105.6556 195° South 354 407 25,000  Level Denver Center
Sun 09:28:10 PM 37.6981 -105.6964 195° South 355 409 25,000  Level Denver Center
Sun 09:29:12 PM 37.5919 -105.7331 195° South 353 406 25,000  Level Denver Center
Sun 09:30:26 PM 37.4956 -105.7669 196° South 348 400 25,000  Level Denver Center
Sun 09:31:28 PM 37.3889 -105.8025 195° South 351 404 25,000  Level Denver Center
Sun 09:32:30 PM 37.2836 -105.8419 197° South 351 404 25,000  Level Denver Center
Sun 09:33:32 PM 37.1997 -105.8850 202° Southwest 344 396 25,000  Level Denver Center
Sun 09:34:33 PM 37.0953 -105.9281 198° South 349 402 25,000  Level Denver Center
Sun 09:35:35 PM 37.0008 -105.9694 199° South 349 402 25,000  Level Denver Center
Sun 09:36:37 PM 36.9286 -106.0019 200° South 347 399 25,000  Level Denver Center
Sun 09:37:39 PM 36.8239 -106.0481 199° South 355 409 25,000  Level Denver Center
Sun 09:38:41 PM 36.7247 -106.0931 200° South 350 403 25,000  Level Denver Center
Sun 09:39:42 PM 36.6317 -106.1333 199° South 353 406 25,000  Level Denver Center
Sun 09:40:24 PM 36.5644 -106.1636 200° South 358 412 25,000  Level Albuquerque Center
Sun 09:41:26 PM 36.4608 -106.2086 199° South 352 405 25,000  Level Albuquerque Center
Sun 09:42:27 PM 36.3714 -106.2486 200° South 355 409 25,000  Level Albuquerque Center
Sun 09:43:28 PM 36.2839 -106.2875 200° South 351 404 25,000 -390 Level Albuquerque Center
Sun 09:44:30 PM 36.1819 -106.3331 200° South 348 400 24,200 -1,220 Descending Albuquerque Center
Sun 09:45:31 PM 36.0956 -106.3692 199° South 351 404 22,500 -1,721 Descending Albuquerque Center
Sun 09:46:32 PM 36.0019 -106.4083 199° South 355 409 20,700 -1,707 Descending Albuquerque Center
Sun 09:47:34 PM 35.9106 -106.4481 199° South 351 404 19,000 -1,707 Descending Albuquerque Center
Sun 09:48:35 PM 35.8211 -106.4869 199° South 344 396 17,200 -1,721 Descending Albuquerque Center
Sun 09:49:36 PM 35.7328 -106.5247 199° South 337 388 15,500 -1,636 Descending Albuquerque Center
Sun 09:50:25 PM 35.6442 -106.5611 198° South 322 371 14,200 -1,595 Descending Albuquerque Center
Sun 09:50:55 PM 35.6067 -106.5789 201° Southwest 316 364 13,400 -973 Descending Albuquerque Center
Sun 09:51:39 PM 35.5483 -106.6019 198° South 318 366 13,000 -393 Descending Albuquerque Center
Sun 09:51:56 PM 35.5228 -106.6111 196° South 317 365 13,000  Level Albuquerque Center
Sun 09:52:40 PM 35.4631 -106.6375 200° South 321 369 13,000  Level Albuquerque Center
Sun 09:52:57 PM 35.4394 -106.6483 200° South 321 369 13,000  Level Albuquerque Center
Sun 09:53:41 PM 35.3800 -106.6747 200° South 319 367 13,000 -700 Level Albuquerque Center
Sun 09:53:57 PM 35.3503 -106.6869 199° South 316 364 12,300 -1,935 Descending Albuquerque Center
Sun 09:54:43 PM 35.2981 -106.7094 199° South 313 360 11,000 -1,967 Descending Albuquerque Center
Sun 09:54:58 PM 35.2703 -106.7181 194° South 301 346 10,300 -1,869 Descending Albuquerque Center
Sun 09:55:44 PM 35.2206 -106.7414 201° Southwest 303 349 9,100 -1,234 Descending Albuquerque Center
Sun 09:56:45 PM 35.1503 -106.7731 200° South 287 330 8,100 -485 Descending Albuquerque Center
Sun 09:58:00 PM 35.0692 -106.7881 189° South 213 245 8,000 -244 Descending Albuquerque Center
Sun 09:58:48 PM 35.0358 -106.7614 147° Southeast 241 277 7,600 -771 Descending Albuquerque Center
Sun 09:59:49 PM 35.0447 -106.6978 80° East 208 239 6,600 -934 Descending Albuquerque Center
Sun 10:00:50 PM 35.0444 -106.6400 90° East 186 214 5,700 -885 Descending Albuquerque Center
Sun 10:02:00 PM 35.0402 -106.6092 90° East  Level Estimated
Sun 10:09:00 PM 35.0402 -106.6092 90° East  Level Estimated

Login

Don't have an account? Register now (free) for customized features, flight alerts, and more!